createdAt,value
2019-01-29T00:00:34.506Z,4.30
2019-01-29T00:03:03.115Z,4.80
2019-01-29T00:05:31.706Z,4.73
2019-01-29T00:08:00.234Z,4.60
2019-01-29T00:10:28.800Z,5.00
2019-01-29T00:12:57.705Z,5.20
2019-01-29T00:15:26.255Z,4.97
2019-01-29T00:17:54.795Z,4.50
2019-01-29T00:20:23.438Z,4.70
2019-01-29T00:22:51.970Z,4.20
2019-01-29T00:25:20.599Z,4.07
2019-01-29T00:27:49.152Z,4.30
2019-01-29T00:30:17.866Z,4.13
2019-01-29T00:32:46.484Z,4.17
2019-01-29T00:35:15.106Z,4.10
2019-01-29T00:37:43.745Z,4.23
2019-01-29T00:40:14.605Z,4.20
2019-01-29T00:42:43.136Z,4.13
2019-01-29T00:45:14.167Z,5.10
2019-01-29T00:47:42.779Z,5.07
2019-01-29T00:50:13.387Z,4.27
2019-01-29T00:52:42.478Z,4.20
2019-01-29T00:55:13.980Z,4.53
2019-01-29T00:57:42.670Z,4.10
2019-01-29T01:00:19.615Z,3.80
2019-01-29T01:02:48.304Z,4.23
2019-01-29T01:05:17.204Z,3.83
2019-01-29T01:07:45.743Z,4.53
2019-01-29T01:10:17.124Z,4.23
2019-01-29T01:12:45.734Z,5.43
2019-01-29T01:15:14.659Z,5.07
2019-01-29T01:17:43.287Z,4.70
2019-01-29T01:20:14.181Z,5.23
2019-01-29T01:22:50.325Z,4.93
2019-01-29T01:25:13.691Z,4.60
2019-01-29T01:27:42.350Z,4.27
2019-01-29T01:30:13.928Z,4.57
2019-01-29T01:32:42.567Z,3.57
2019-01-29T01:35:11.258Z,3.93
2019-01-29T01:37:39.847Z,4.33
2019-01-29T01:40:14.627Z,3.10
2019-01-29T01:42:43.196Z,3.07
2019-01-29T01:45:12.366Z,3.13
2019-01-29T01:47:40.849Z,2.50
2019-01-29T01:50:11.711Z,2.60
2019-01-29T01:52:40.353Z,2.57
2019-01-29T01:55:11.429Z,2.77
2019-01-29T01:57:39.999Z,2.50
2019-01-29T02:00:12.227Z,2.43
2019-01-29T02:02:40.808Z,2.53
2019-01-29T02:05:09.498Z,1.80
2019-01-29T02:07:38.082Z,2.13
2019-01-29T02:10:09.685Z,2.60
2019-01-29T02:12:38.251Z,2.40
2019-01-29T02:15:09.230Z,2.37
2019-01-29T02:17:37.805Z,2.40
2019-01-29T02:20:09.423Z,2.90
2019-01-29T02:22:38.077Z,2.97
2019-01-29T02:25:06.763Z,2.37
2019-01-29T02:27:35.326Z,2.90
2019-01-29T02:30:12.971Z,2.90
2019-01-29T02:32:41.612Z,3.23
2019-01-29T02:35:10.287Z,3.03
2019-01-29T02:37:38.866Z,3.00
2019-01-29T02:40:10.477Z,2.20
2019-01-29T02:42:39.046Z,2.60
2019-01-29T02:45:13.763Z,2.90
2019-01-29T02:47:42.339Z,2.80
2019-01-29T02:50:13.242Z,2.47
2019-01-29T02:52:41.801Z,2.47
2019-01-29T02:55:12.878Z,2.97
2019-01-29T02:57:41.592Z,3.00
2019-01-29T03:00:13.546Z,2.90
2019-01-29T03:02:42.286Z,2.70
2019-01-29T03:05:12.972Z,3.20
2019-01-29T03:07:41.608Z,2.50
2019-01-29T03:10:24.546Z,2.80
2019-01-29T03:12:53.205Z,3.20
2019-01-29T03:15:27.795Z,3.10
2019-01-29T03:17:56.514Z,2.70
2019-01-29T03:20:25.188Z,2.80
2019-01-29T03:22:53.762Z,3.00
2019-01-29T03:25:22.367Z,3.13
2019-01-29T03:27:51.026Z,3.17
2019-01-29T03:30:21.982Z,3.00
2019-01-29T03:32:50.725Z,2.83
2019-01-29T03:35:19.509Z,2.90
2019-01-29T03:37:48.182Z,2.77
2019-01-29T03:40:25.400Z,2.80
2019-01-29T03:42:54.483Z,3.27
2019-01-29T03:45:23.371Z,3.17
2019-01-29T03:47:52.051Z,2.40
2019-01-29T03:50:22.364Z,2.73
2019-01-29T03:52:51.676Z,2.37
2019-01-29T03:55:20.399Z,2.70
2019-01-29T03:57:49.065Z,2.57
2019-01-29T04:00:26.081Z,2.60
2019-01-29T04:02:55.627Z,2.10
2019-01-29T04:05:24.342Z,2.40
2019-01-29T04:07:53.024Z,2.33
2019-01-29T04:10:21.835Z,2.50
2019-01-29T04:12:50.517Z,2.47
2019-01-29T04:15:20.951Z,2.57
2019-01-29T04:17:52.595Z,2.13
2019-01-29T04:20:21.391Z,2.47
2019-01-29T04:22:49.919Z,2.63
2019-01-29T04:25:18.489Z,2.70
2019-01-29T04:27:47.028Z,2.80
2019-01-29T04:30:17.679Z,2.50
2019-01-29T04:32:46.295Z,2.43
2019-01-29T04:35:14.940Z,2.83
2019-01-29T04:37:43.734Z,2.60
2019-01-29T04:40:14.582Z,2.87
2019-01-29T04:42:43.234Z,2.70
2019-01-29T04:45:13.839Z,2.10
2019-01-29T04:47:42.517Z,2.43
2019-01-29T04:50:13.745Z,2.10
2019-01-29T04:52:42.622Z,2.30
2019-01-29T04:55:13.736Z,2.70
2019-01-29T04:57:42.452Z,2.40
2019-01-29T05:00:22.734Z,2.43
2019-01-29T05:02:51.620Z,2.80
2019-01-29T05:05:20.945Z,2.43
2019-01-29T05:07:49.560Z,2.17
2019-01-29T05:10:20.217Z,2.40
2019-01-29T05:12:48.819Z,2.33
2019-01-29T05:15:19.222Z,3.20
2019-01-29T05:17:47.829Z,3.10
2019-01-29T05:20:21.391Z,6.33
2019-01-29T05:22:50.291Z,5.30
2019-01-29T05:25:19.234Z,4.10
2019-01-29T05:27:47.941Z,3.30
2019-01-29T05:30:20.729Z,2.90
2019-01-29T05:32:49.109Z,2.97
2019-01-29T05:35:17.794Z,2.80
2019-01-29T05:37:46.444Z,2.77
2019-01-29T05:40:20.554Z,2.17
2019-01-29T05:42:49.466Z,2.40
2019-01-29T05:45:19.935Z,2.40
2019-01-29T05:47:48.854Z,2.53
2019-01-29T05:50:17.744Z,1.90
2019-01-29T05:52:46.387Z,1.83
2019-01-29T05:55:16.524Z,2.67
2019-01-29T05:57:45.530Z,2.20
2019-01-29T06:00:20.022Z,2.07
2019-01-29T06:02:48.805Z,2.80
2019-01-29T06:05:18.104Z,2.60
2019-01-29T06:07:46.755Z,2.40
2019-01-29T06:10:16.740Z,2.90
2019-01-29T06:12:45.680Z,2.90
2019-01-29T06:15:16.663Z,3.23
2019-01-29T06:17:45.307Z,2.77
2019-01-29T06:20:19.114Z,3.00
2019-01-29T06:22:47.755Z,2.70
2019-01-29T06:25:16.526Z,3.37
2019-01-29T06:27:46.045Z,4.47
2019-01-29T06:30:16.748Z,3.20
2019-01-29T06:32:45.463Z,3.07
2019-01-29T06:35:15.948Z,3.10
2019-01-29T06:37:44.550Z,3.50
2019-01-29T06:40:16.139Z,2.57
2019-01-29T06:42:44.669Z,2.13
2019-01-29T06:45:16.167Z,2.57
2019-01-29T06:47:44.797Z,2.53
2019-01-29T06:50:16.082Z,2.33
2019-01-29T06:52:44.706Z,2.87
2019-01-29T06:55:16.375Z,2.73
2019-01-29T06:57:44.993Z,2.90
2019-01-29T07:00:22.174Z,2.87
2019-01-29T07:02:50.870Z,2.87
2019-01-29T07:05:19.423Z,2.77
2019-01-29T07:07:48.030Z,2.83
2019-01-29T07:10:19.240Z,2.97
2019-01-29T07:12:47.855Z,3.03
2019-01-29T07:15:40.188Z,3.30
2019-01-29T07:18:10.844Z,3.00
2019-01-29T07:20:39.479Z,3.10
2019-01-29T07:23:08.084Z,2.90
2019-01-29T07:25:36.787Z,3.90
2019-01-29T07:28:05.399Z,4.03
2019-01-29T07:30:33.960Z,4.13
2019-01-29T07:33:02.511Z,4.20
2019-01-29T07:35:31.362Z,4.13
2019-01-29T07:37:59.888Z,4.33
2019-01-29T07:40:28.454Z,4.73
2019-01-29T07:42:56.950Z,4.63
2019-01-29T07:45:25.582Z,4.20
2019-01-29T07:47:54.255Z,4.03
2019-01-29T07:50:22.830Z,3.77
2019-01-29T07:52:51.429Z,3.17
2019-01-29T07:55:19.914Z,3.20
2019-01-29T07:57:50.856Z,2.63
2019-01-29T08:00:19.424Z,2.80
2019-01-29T08:02:48.045Z,2.80
2019-01-29T08:05:16.613Z,2.80
2019-01-29T08:07:45.195Z,2.70
2019-01-29T08:10:15.815Z,3.43
2019-01-29T08:12:44.435Z,3.20
2019-01-29T08:15:16.355Z,2.93
2019-01-29T08:17:45.309Z,3.33
2019-01-29T08:20:15.627Z,2.97
2019-01-29T08:22:44.431Z,2.90
2019-01-29T08:25:13.333Z,3.57
2019-01-29T08:27:42.016Z,3.27
2019-01-29T08:30:18.950Z,3.47
2019-01-29T08:32:47.846Z,3.73
2019-01-29T08:35:17.994Z,3.50
2019-01-29T08:37:46.535Z,3.40
2019-01-29T08:40:17.005Z,3.37
2019-01-29T08:42:45.691Z,3.67
2019-01-29T08:45:16.368Z,4.30
2019-01-29T08:47:45.074Z,3.80
2019-01-29T08:50:16.685Z,4.97
2019-01-29T08:52:45.250Z,4.30
2019-01-29T08:55:14.024Z,6.70
2019-01-29T08:57:42.670Z,3.40
2019-01-29T09:00:14.487Z,3.70
2019-01-29T09:02:43.134Z,3.33
2019-01-29T09:05:12.235Z,3.63
2019-01-29T09:07:40.922Z,3.40
2019-01-29T09:10:15.546Z,2.90
2019-01-29T09:12:44.102Z,3.83
2019-01-29T09:15:15.867Z,5.37
2019-01-29T09:17:44.563Z,7.00
2019-01-29T09:20:15.832Z,3.87
2019-01-29T09:22:44.542Z,3.00
2019-01-29T09:25:20.991Z,4.63
2019-01-29T09:27:45.034Z,3.27
2019-01-29T09:30:20.481Z,3.60
2019-01-29T09:32:49.120Z,3.40
2019-01-29T09:35:17.655Z,3.63
2019-01-29T09:37:46.226Z,4.40
2019-01-29T09:40:24.529Z,4.90
2019-01-29T09:42:53.186Z,5.27
2019-01-29T09:45:22.267Z,6.63
2019-01-29T09:47:52.370Z,5.53
2019-01-29T09:50:23.121Z,4.43
2019-01-29T09:52:52.917Z,3.50
2019-01-29T09:55:29.056Z,5.00
2019-01-29T09:57:53.810Z,3.80
2019-01-29T10:00:25.442Z,3.40
2019-01-29T10:02:54.070Z,3.70
2019-01-29T10:05:22.762Z,3.00
2019-01-29T10:07:51.494Z,3.73
2019-01-29T10:10:20.106Z,3.73
2019-01-29T10:12:48.864Z,5.10
2019-01-29T10:15:28.571Z,4.10
2019-01-29T10:17:57.410Z,4.30
2019-01-29T10:20:26.494Z,5.00
2019-01-29T10:22:55.115Z,6.23
2019-01-29T10:25:23.817Z,11.50
2019-01-29T10:27:52.455Z,7.47
2019-01-29T10:30:24.044Z,7.70
2019-01-29T10:32:53.020Z,6.70
2019-01-29T10:35:23.216Z,11.30
2019-01-29T10:37:51.953Z,8.37
2019-01-29T10:40:26.044Z,13.60
2019-01-29T10:42:55.682Z,7.63
2019-01-29T10:45:26.788Z,7.87
2019-01-29T10:47:55.436Z,7.53
2019-01-29T10:50:26.567Z,10.40
2019-01-29T10:52:55.282Z,8.40
2019-01-29T10:55:23.894Z,9.23
2019-01-29T10:57:52.607Z,9.40
2019-01-29T11:00:24.248Z,6.87
2019-01-29T11:02:52.967Z,8.60
2019-01-29T11:05:22.170Z,8.87
2019-01-29T11:07:50.806Z,8.33
2019-01-29T11:10:20.982Z,6.70
2019-01-29T11:12:49.566Z,9.30
2019-01-29T11:15:24.065Z,7.77
2019-01-29T11:17:52.882Z,5.70
2019-01-29T11:20:21.550Z,6.83
2019-01-29T11:22:50.060Z,5.40
2019-01-29T11:25:24.173Z,4.43
2019-01-29T11:27:53.145Z,4.53
2019-01-29T11:30:24.032Z,5.03
2019-01-29T11:32:52.759Z,5.00
2019-01-29T11:35:21.410Z,5.30
2019-01-29T11:37:50.014Z,6.40
2019-01-29T11:40:21.132Z,4.47
2019-01-29T11:42:49.812Z,5.47
2019-01-29T11:45:25.195Z,6.87
2019-01-29T11:47:53.739Z,5.10
2019-01-29T11:50:22.603Z,7.63
2019-01-29T11:52:51.156Z,10.20
2019-01-29T11:55:19.707Z,8.60
2019-01-29T11:57:48.364Z,7.80
2019-01-29T12:00:21.965Z,10.67
2019-01-29T12:02:50.605Z,7.17
2019-01-29T12:05:19.130Z,5.43
2019-01-29T12:07:47.694Z,5.03
2019-01-29T12:10:16.285Z,6.10
2019-01-29T12:12:44.789Z,4.80
2019-01-29T12:15:21.099Z,5.07
2019-01-29T12:17:49.817Z,4.30
2019-01-29T12:20:20.240Z,4.40
2019-01-29T12:22:48.956Z,5.37
2019-01-29T12:25:17.622Z,5.37
2019-01-29T12:27:46.198Z,4.90
2019-01-29T12:30:22.927Z,6.70
2019-01-29T12:32:52.394Z,16.33
2019-01-29T12:35:21.211Z,6.23
2019-01-29T12:37:49.936Z,10.73
2019-01-29T12:40:18.949Z,8.10
2019-01-29T12:42:47.838Z,4.47
2019-01-29T12:45:20.171Z,4.50
2019-01-29T12:47:49.153Z,8.93
2019-01-29T12:50:23.238Z,11.17
2019-01-29T12:53:12.011Z,9.23
2019-01-29T12:55:40.613Z,4.97
2019-01-29T12:58:09.337Z,6.20
2019-01-29T13:00:39.752Z,6.00
2019-01-29T13:03:08.524Z,6.03
2019-01-29T13:05:37.370Z,5.60
2019-01-29T13:08:06.239Z,5.60
2019-01-29T13:10:34.750Z,5.83
2019-01-29T13:13:03.428Z,5.70
2019-01-29T13:15:33.638Z,7.47
2019-01-29T13:18:02.605Z,4.37
2019-01-29T13:20:31.475Z,5.27
2019-01-29T13:23:00.005Z,3.97
2019-01-29T13:25:28.598Z,4.30
2019-01-29T13:27:57.168Z,4.53
2019-01-29T13:30:33.922Z,3.83
2019-01-29T13:33:02.846Z,4.33
2019-01-29T13:35:33.665Z,4.57
2019-01-29T13:38:02.263Z,3.63
2019-01-29T13:40:31.270Z,4.27
2019-01-29T13:42:59.909Z,5.23
2019-01-29T13:45:28.948Z,3.90
2019-01-29T13:47:57.596Z,3.60
2019-01-29T13:50:32.222Z,5.03
2019-01-29T13:53:00.740Z,4.90
2019-01-29T13:55:29.338Z,3.63
2019-01-29T13:57:57.946Z,4.50
2019-01-29T14:00:31.494Z,6.27
2019-01-29T14:03:00.129Z,5.80
2019-01-29T14:05:28.735Z,5.20
2019-01-29T14:07:57.298Z,4.20
2019-01-29T14:10:26.130Z,4.43
2019-01-29T14:12:54.832Z,5.00
2019-01-29T14:15:32.526Z,3.57
2019-01-29T14:18:01.148Z,3.83
2019-01-29T14:20:29.719Z,7.40
2019-01-29T14:22:58.363Z,5.00
2019-01-29T14:25:26.901Z,4.70
2019-01-29T14:27:55.433Z,4.10
2019-01-29T14:30:26.346Z,3.83
2019-01-29T14:32:55.922Z,8.00
2019-01-29T14:35:24.526Z,5.27
2019-01-29T14:38:01.920Z,5.83
2019-01-29T14:40:32.384Z,6.97
2019-01-29T14:43:00.963Z,6.73
2019-01-29T14:45:31.347Z,8.50
2019-01-29T14:47:59.919Z,10.80
2019-01-29T14:50:29.598Z,10.10
2019-01-29T14:52:58.247Z,10.13
2019-01-29T14:55:27.014Z,10.27
2019-01-29T14:57:55.734Z,7.27
2019-01-29T15:00:37.641Z,7.60
2019-01-29T15:03:06.393Z,4.67
2019-01-29T15:05:34.926Z,7.30
2019-01-29T15:08:03.782Z,10.30
2019-01-29T15:10:33.171Z,4.60
2019-01-29T15:13:01.893Z,4.63
2019-01-29T15:15:49.695Z,4.57
2019-01-29T15:18:19.915Z,4.40
2019-01-29T15:20:48.590Z,4.57
2019-01-29T15:23:17.166Z,4.40
2019-01-29T15:25:45.781Z,4.30
2019-01-29T15:28:18.819Z,5.40
2019-01-29T15:30:47.360Z,7.07
2019-01-29T15:33:16.159Z,6.40
2019-01-29T15:35:44.802Z,5.20
2019-01-29T15:38:13.390Z,5.10
2019-01-29T15:40:42.099Z,4.20
2019-01-29T15:43:10.983Z,4.90
2019-01-29T15:45:39.635Z,5.00
2019-01-29T15:48:08.238Z,5.93
2019-01-29T15:50:37.403Z,4.33
2019-01-29T15:53:06.775Z,4.70
2019-01-29T15:55:35.906Z,5.37
2019-01-29T15:58:06.389Z,4.70
2019-01-29T16:00:37.155Z,4.77
2019-01-29T16:03:05.878Z,4.93
2019-01-29T16:05:37.074Z,4.87
2019-01-29T16:08:08.873Z,5.40
2019-01-29T16:10:40.027Z,5.60
2019-01-29T16:13:08.746Z,5.63
2019-01-29T16:15:37.646Z,5.60
2019-01-29T16:18:06.622Z,6.27
2019-01-29T16:20:35.325Z,5.90
2019-01-29T16:23:04.553Z,5.30
2019-01-29T16:25:34.880Z,5.00
2019-01-29T16:28:03.489Z,5.70
2019-01-29T16:30:34.761Z,5.40
2019-01-29T16:33:03.369Z,5.00
2019-01-29T16:35:40.323Z,5.80
2019-01-29T16:38:09.400Z,5.17
2019-01-29T16:40:40.678Z,4.90
2019-01-29T16:43:09.345Z,5.23
2019-01-29T16:45:38.166Z,5.00
2019-01-29T16:48:08.334Z,4.50
2019-01-29T16:50:36.974Z,5.60
2019-01-29T16:53:07.845Z,6.40
2019-01-29T16:55:36.577Z,5.43
2019-01-29T16:58:06.375Z,5.40
2019-01-29T17:00:37.101Z,5.70
2019-01-29T17:03:05.705Z,5.37
2019-01-29T17:05:34.191Z,6.47
2019-01-29T17:08:02.789Z,6.87
2019-01-29T17:10:33.266Z,6.90
2019-01-29T17:13:01.793Z,6.53
2019-01-29T17:15:31.962Z,5.73
2019-01-29T17:18:01.773Z,5.33
2019-01-29T17:20:35.912Z,7.00
2019-01-29T17:23:06.519Z,7.17
2019-01-29T17:25:35.121Z,6.20
2019-01-29T17:28:03.980Z,5.73
2019-01-29T17:30:37.858Z,4.73
2019-01-29T17:33:07.093Z,5.17
2019-01-29T17:35:36.764Z,4.90
2019-01-29T17:38:06.261Z,5.13
2019-01-29T17:40:34.891Z,5.40
2019-01-29T17:43:03.616Z,4.43
2019-01-29T17:45:40.542Z,5.30
2019-01-29T17:48:09.237Z,4.87
2019-01-29T17:50:40.554Z,6.03
2019-01-29T17:53:09.182Z,5.33
2019-01-29T17:55:39.361Z,5.00
2019-01-29T17:58:08.893Z,4.00
2019-01-29T18:00:39.202Z,4.23
2019-01-29T18:03:08.005Z,4.40
2019-01-29T18:05:36.772Z,4.83
2019-01-29T18:08:05.574Z,4.40
2019-01-29T18:10:34.101Z,4.93
2019-01-29T18:13:02.836Z,4.70
2019-01-29T18:15:32.218Z,4.87
2019-01-29T18:18:01.124Z,5.10
2019-01-29T18:20:29.716Z,4.10
2019-01-29T18:22:58.275Z,5.20
2019-01-29T18:25:27.047Z,4.57
2019-01-29T18:28:01.247Z,4.60
2019-01-29T18:30:32.185Z,4.73
2019-01-29T18:33:00.836Z,4.93
2019-01-29T18:35:29.791Z,4.83
2019-01-29T18:37:58.518Z,5.20
2019-01-29T18:40:36.081Z,5.73
2019-01-29T18:43:04.858Z,5.70
2019-01-29T18:45:33.462Z,4.70
2019-01-29T18:48:02.170Z,4.77
2019-01-29T18:50:30.771Z,4.70
2019-01-29T18:52:59.315Z,5.97
2019-01-29T18:55:27.889Z,7.07
2019-01-29T18:57:56.443Z,8.03
2019-01-29T19:00:26.558Z,5.40
2019-01-29T19:02:55.237Z,5.30
2019-01-29T19:05:25.798Z,5.07
2019-01-29T19:07:54.429Z,4.83
2019-01-29T19:10:23.367Z,5.03
2019-01-29T19:12:52.118Z,5.70
2019-01-29T19:15:23.710Z,5.57
2019-01-29T19:17:52.381Z,5.07
2019-01-29T19:20:26.217Z,5.10
2019-01-29T19:22:54.897Z,5.33
2019-01-29T19:25:23.663Z,4.93
2019-01-29T19:27:52.342Z,5.10
2019-01-29T19:30:23.082Z,5.40
2019-01-29T19:32:52.028Z,4.73
2019-01-29T19:35:20.581Z,5.20
2019-01-29T19:37:49.199Z,5.10
2019-01-29T19:40:19.106Z,5.13
2019-01-29T19:42:47.632Z,8.83
2019-01-29T19:45:24.505Z,5.80
2019-01-29T19:47:53.303Z,4.93
2019-01-29T19:50:23.910Z,5.40
2019-01-29T19:52:52.580Z,6.00
2019-01-29T19:55:21.782Z,6.00
2019-01-29T19:57:50.311Z,4.80
2019-01-29T20:00:24.505Z,5.80
2019-01-29T20:02:53.210Z,10.00
2019-01-29T20:05:21.920Z,5.87
2019-01-29T20:07:50.525Z,6.30
2019-01-29T20:10:21.338Z,5.40
2019-01-29T20:12:50.015Z,5.00
2019-01-29T20:15:20.641Z,6.33
2019-01-29T20:17:50.215Z,5.60
2019-01-29T20:20:24.633Z,5.50
2019-01-29T20:22:53.235Z,5.50
2019-01-29T20:25:22.151Z,6.43
2019-01-29T20:27:53.096Z,6.40
2019-01-29T20:30:26.434Z,5.70
2019-01-29T20:32:55.070Z,5.40
2019-01-29T20:35:23.602Z,5.43
2019-01-29T20:37:52.167Z,6.00
2019-01-29T20:40:24.452Z,5.97
2019-01-29T20:42:53.091Z,6.37
2019-01-29T20:45:22.170Z,7.17
2019-01-29T20:47:52.737Z,5.90
2019-01-29T20:50:24.197Z,5.77
2019-01-29T20:52:52.759Z,4.93
2019-01-29T20:55:21.381Z,5.90
2019-01-29T20:57:50.006Z,5.27
2019-01-29T21:00:24.102Z,5.13
2019-01-29T21:02:52.731Z,5.50
2019-01-29T21:05:21.342Z,5.77
2019-01-29T21:07:50.059Z,5.60
2019-01-29T21:10:20.835Z,6.73
2019-01-29T21:12:49.551Z,6.43
2019-01-29T21:15:20.369Z,5.97
2019-01-29T21:17:49.066Z,6.20
2019-01-29T21:20:20.105Z,6.47
2019-01-29T21:22:48.904Z,8.40
2019-01-29T21:25:17.450Z,10.10
2019-01-29T21:27:46.184Z,10.17
2019-01-29T21:30:21.026Z,9.07
2019-01-29T21:32:49.697Z,7.80
2019-01-29T21:35:18.308Z,7.30
2019-01-29T21:37:46.947Z,8.80
2019-01-29T21:40:17.434Z,8.20
2019-01-29T21:42:46.208Z,8.03
2019-01-29T21:45:17.018Z,6.10
2019-01-29T21:47:46.010Z,7.73
2019-01-29T21:50:17.504Z,9.10
2019-01-29T21:52:46.117Z,9.03
2019-01-29T21:55:16.233Z,10.33
2019-01-29T21:57:44.942Z,8.90
2019-01-29T22:00:19.444Z,8.80
2019-01-29T22:02:48.055Z,8.17
2019-01-29T22:05:16.797Z,7.93
2019-01-29T22:07:45.354Z,8.03
2019-01-29T22:10:15.668Z,8.43
2019-01-29T22:12:44.569Z,9.60
2019-01-29T22:15:20.819Z,8.60
2019-01-29T22:17:49.446Z,9.23
2019-01-29T22:20:24.856Z,8.80
2019-01-29T22:22:53.467Z,9.57
2019-01-29T22:25:24.057Z,8.40
2019-01-29T22:27:52.754Z,7.50
2019-01-29T22:30:35.946Z,8.80
2019-01-29T22:33:06.306Z,7.30
2019-01-29T22:35:35.018Z,6.70
2019-01-29T22:38:03.949Z,7.20
2019-01-29T22:40:33.010Z,7.47
2019-01-29T22:43:02.086Z,7.60
2019-01-29T22:45:30.802Z,7.63
2019-01-29T22:47:59.429Z,6.63
2019-01-29T22:50:35.630Z,7.50
2019-01-29T22:53:04.609Z,6.90
2019-01-29T22:55:33.262Z,7.60
2019-01-29T22:58:01.873Z,7.53
2019-01-29T23:00:59.168Z,7.00
2019-01-29T23:03:33.645Z,7.57
2019-01-29T23:06:14.346Z,7.50
2019-01-29T23:08:42.909Z,6.93
2019-01-29T23:11:11.488Z,7.53
2019-01-29T23:13:40.101Z,7.87
2019-01-29T23:16:08.805Z,7.70
2019-01-29T23:18:37.418Z,6.97
2019-01-29T23:21:06.071Z,7.60
2019-01-29T23:23:35.073Z,7.30
2019-01-29T23:26:03.682Z,7.87
2019-01-29T23:28:32.226Z,6.80
2019-01-29T23:31:01.010Z,6.27
2019-01-29T23:33:29.615Z,7.50
2019-01-29T23:35:58.209Z,7.73
2019-01-29T23:38:26.744Z,6.17
2019-01-29T23:40:55.313Z,7.10
2019-01-29T23:43:23.799Z,7.13
2019-01-29T23:45:52.471Z,6.20
2019-01-29T23:48:21.014Z,6.93
2019-01-29T23:50:49.679Z,6.23
2019-01-29T23:53:18.213Z,6.40
2019-01-29T23:55:46.855Z,6.70
2019-01-29T23:58:15.404Z,6.23
